createdAt,value
2023-02-19T00:02:08.051Z,100951.00
2023-02-19T00:04:34.792Z,100955.00
2023-02-19T00:07:01.607Z,100958.00
2023-02-19T00:09:28.464Z,100959.00
2023-02-19T00:11:55.192Z,100948.00
2023-02-19T00:14:21.966Z,100953.00
2023-02-19T00:16:49.553Z,100959.00
2023-02-19T00:19:20.336Z,100944.00
2023-02-19T00:21:48.024Z,100956.00
2023-02-19T00:24:15.577Z,100937.00
2023-02-19T00:26:44.194Z,100945.00
2023-02-19T00:29:21.280Z,100951.00
2023-02-19T00:31:48.729Z,100947.00
2023-02-19T00:34:15.832Z,100947.00
2023-02-19T00:36:44.288Z,100933.00
2023-02-19T00:39:15.991Z,100930.00
2023-02-19T00:41:43.508Z,100924.00
2023-02-19T00:44:12.224Z,100924.00
2023-02-19T00:46:46.074Z,100918.00
2023-02-19T00:49:23.825Z,100934.00
2023-02-19T00:51:52.632Z,100937.00
2023-02-19T00:54:20.478Z,100930.00
2023-02-19T00:56:47.441Z,100935.00
2023-02-19T00:59:14.877Z,100932.00
2023-02-19T01:01:42.601Z,100923.00
2023-02-19T01:04:09.397Z,100911.00
2023-02-19T01:06:36.689Z,100920.00
2023-02-19T01:09:05.528Z,100920.00
2023-02-19T01:11:32.301Z,100906.00
2023-02-19T01:14:01.043Z,100912.00
2023-02-19T01:16:28.198Z,100903.00
2023-02-19T01:18:56.383Z,100907.00
2023-02-19T01:21:25.868Z,100897.00
2023-02-19T01:23:53.733Z,100903.00
2023-02-19T01:26:25.308Z,100901.00
2023-02-19T01:28:52.819Z,100882.00
2023-02-19T01:31:24.119Z,100877.00
2023-02-19T01:33:55.575Z,100869.00
2023-02-19T01:36:22.906Z,100862.00
2023-02-19T01:38:49.930Z,100854.00
2023-02-19T01:41:22.809Z,100869.00
2023-02-19T01:44:25.290Z,100863.00
2023-02-19T01:46:53.202Z,100870.00
2023-02-19T01:49:48.973Z,100862.00
2023-02-19T01:52:26.740Z,100857.00
2023-02-19T01:54:54.790Z,100862.00
2023-02-19T01:57:27.812Z,100859.00
2023-02-19T02:00:01.707Z,100850.00
2023-02-19T02:02:28.589Z,100851.00
2023-02-19T02:04:58.297Z,100851.00
2023-02-19T02:07:44.747Z,100847.00
2023-02-19T02:10:21.110Z,100831.00
2023-02-19T02:12:58.841Z,100828.00
2023-02-19T02:15:44.711Z,100833.00
2023-02-19T02:18:30.915Z,100818.00
2023-02-19T02:21:44.511Z,100844.00
2023-02-19T02:25:00.933Z,100833.00
2023-02-19T02:28:04.027Z,100838.00
2023-02-19T02:30:47.046Z,100844.00
2023-02-19T02:33:37.451Z,100850.00
2023-02-19T02:36:16.640Z,100838.00
2023-02-19T02:38:46.580Z,100834.00
2023-02-19T02:41:15.819Z,100825.00
2023-02-19T02:43:43.732Z,100829.00
2023-02-19T02:46:20.072Z,100824.00
2023-02-19T02:48:55.399Z,100826.00
2023-02-19T02:51:33.932Z,100827.00
2023-02-19T02:54:29.587Z,100824.00
2023-02-19T02:56:58.787Z,100825.00
2023-02-19T02:59:31.365Z,100844.00
2023-02-19T03:02:14.472Z,100830.00
2023-02-19T03:05:32.491Z,100832.00
2023-02-19T03:08:36.607Z,100834.00
2023-02-19T03:11:29.770Z,100830.00
2023-02-19T03:14:29.670Z,100835.00
2023-02-19T03:17:31.923Z,100852.00
2023-02-19T03:20:03.523Z,100846.00
2023-02-19T03:22:36.271Z,100859.00
2023-02-19T03:25:40.706Z,100852.00
2023-02-19T03:28:12.523Z,100857.00
2023-02-19T03:30:47.145Z,100867.00
2023-02-19T03:33:23.969Z,100871.00
2023-02-19T03:36:00.720Z,100865.00
2023-02-19T03:38:40.719Z,100857.00
2023-02-19T03:41:25.826Z,100863.00
2023-02-19T03:44:03.061Z,100867.00
2023-02-19T03:46:45.605Z,100866.00
2023-02-19T03:49:47.919Z,100881.00
2023-02-19T03:52:21.670Z,100879.00
2023-02-19T03:54:58.779Z,100873.00
2023-02-19T03:57:43.014Z,100868.00
2023-02-19T04:00:33.405Z,100863.00
2023-02-19T04:03:32.250Z,100872.00
2023-02-19T04:06:26.090Z,100872.00
2023-02-19T04:08:58.701Z,100877.00
2023-02-19T04:11:28.874Z,100887.00
2023-02-19T04:14:06.508Z,100886.00
2023-02-19T04:16:37.658Z,100882.00
2023-02-19T04:19:19.339Z,100882.00
2023-02-19T04:21:49.576Z,100896.00
2023-02-19T04:24:51.970Z,100893.00
2023-02-19T04:27:19.474Z,100886.00
2023-02-19T04:29:46.618Z,100898.00
2023-02-19T04:32:14.178Z,100907.00
2023-02-19T04:34:41.103Z,100910.00
2023-02-19T04:37:08.248Z,100909.00
2023-02-19T04:39:35.322Z,100912.00
2023-02-19T04:42:02.227Z,100911.00
2023-02-19T04:44:29.026Z,100900.00
2023-02-19T04:46:55.968Z,100908.00
2023-02-19T04:49:23.289Z,100907.00
2023-02-19T04:51:50.291Z,100899.00
2023-02-19T04:54:17.000Z,100917.00
2023-02-19T04:56:43.750Z,100911.00
2023-02-19T04:59:10.648Z,100927.00
2023-02-19T05:01:37.852Z,100924.00
2023-02-19T05:04:05.309Z,100918.00
2023-02-19T05:06:32.101Z,100918.00
2023-02-19T05:08:59.056Z,100925.00
2023-02-19T05:11:25.823Z,100927.00
2023-02-19T05:13:52.588Z,100912.00
2023-02-19T05:16:19.312Z,100921.00
2023-02-19T05:18:47.274Z,100922.00
2023-02-19T05:21:15.215Z,100919.00
2023-02-19T05:23:42.449Z,100916.00
2023-02-19T05:26:17.978Z,100913.00
2023-02-19T05:28:47.160Z,100918.00
2023-02-19T05:31:14.659Z,100914.00
2023-02-19T05:33:43.040Z,100913.00
2023-02-19T05:36:13.589Z,100925.00
2023-02-19T05:38:41.841Z,100920.00
2023-02-19T05:41:18.256Z,100917.00
2023-02-19T05:43:48.168Z,100918.00
2023-02-19T05:46:19.768Z,100916.00
2023-02-19T05:48:48.554Z,100923.00
2023-02-19T05:51:19.190Z,100938.00
2023-02-19T05:53:47.697Z,100935.00
2023-02-19T05:56:26.271Z,100934.00
2023-02-19T05:58:55.773Z,100939.00
2023-02-19T06:01:27.476Z,100936.00
2023-02-19T06:03:57.383Z,100942.00
2023-02-19T06:06:25.240Z,100937.00
2023-02-19T06:08:52.194Z,100932.00
2023-02-19T06:11:19.278Z,100934.00
2023-02-19T06:13:46.744Z,100922.00
2023-02-19T06:16:13.671Z,100935.00
2023-02-19T06:18:41.231Z,100940.00
2023-02-19T06:21:11.999Z,100926.00
2023-02-19T06:23:39.887Z,100926.00
2023-02-19T06:26:22.584Z,100947.00
2023-02-19T06:28:51.593Z,100935.00
2023-02-19T06:31:20.663Z,100944.00
2023-02-19T06:33:47.974Z,100959.00
2023-02-19T06:36:18.423Z,100956.00
2023-02-19T06:38:45.496Z,100950.00
2023-02-19T06:41:13.516Z,100959.00
2023-02-19T06:43:40.955Z,100977.00
2023-02-19T06:46:08.892Z,100988.00
2023-02-19T06:48:35.912Z,100998.00
2023-02-19T06:51:03.352Z,100993.00
2023-02-19T06:53:30.302Z,100998.00
2023-02-19T06:55:59.820Z,100995.00
2023-02-19T06:58:27.492Z,101015.00
2023-02-19T07:00:55.079Z,101005.00
2023-02-19T07:03:22.206Z,101020.00
2023-02-19T07:05:49.263Z,101019.00
2023-02-19T07:08:17.351Z,101032.00
2023-02-19T07:10:45.508Z,101022.00
2023-02-19T07:13:12.476Z,101017.00
2023-02-19T07:15:39.229Z,101027.00
2023-02-19T07:18:10.192Z,101035.00
2023-02-19T07:20:37.164Z,101039.00
2023-02-19T07:23:04.020Z,101038.00
2023-02-19T07:25:30.829Z,101033.00
2023-02-19T07:27:57.560Z,101043.00
2023-02-19T07:30:24.397Z,101045.00
2023-02-19T07:32:51.166Z,101050.00
2023-02-19T07:35:17.877Z,101054.00
2023-02-19T07:37:44.775Z,101063.00
2023-02-19T07:40:11.616Z,101063.00
2023-02-19T07:42:38.768Z,101077.00
2023-02-19T07:45:05.802Z,101064.00
2023-02-19T07:47:32.545Z,101081.00
2023-02-19T07:49:59.395Z,101082.00
2023-02-19T07:52:26.135Z,101084.00
2023-02-19T07:54:52.906Z,101080.00
2023-02-19T07:57:19.716Z,101089.00
2023-02-19T07:59:46.430Z,101092.00
2023-02-19T08:02:37.346Z,101104.00
2023-02-19T08:05:06.669Z,101102.00
2023-02-19T08:07:35.165Z,101118.00
2023-02-19T08:10:22.367Z,101124.00
2023-02-19T08:13:18.619Z,101133.00
2023-02-19T08:16:18.268Z,101133.00
2023-02-19T08:18:49.206Z,101147.00
2023-02-19T08:21:18.227Z,101147.00
2023-02-19T08:23:46.261Z,101149.00
2023-02-19T08:26:13.336Z,101153.00
2023-02-19T08:28:40.551Z,101170.00
2023-02-19T08:31:10.844Z,101188.00
2023-02-19T08:33:39.286Z,101173.00
2023-02-19T08:36:09.118Z,101185.00
2023-02-19T08:38:36.808Z,101180.00
2023-02-19T08:41:09.136Z,101198.00
2023-02-19T08:43:36.626Z,101203.00
2023-02-19T08:46:04.583Z,101199.00
2023-02-19T08:48:31.319Z,101199.00
2023-02-19T08:51:04.329Z,101211.00
2023-02-19T08:53:32.962Z,101197.00
2023-02-19T08:56:08.145Z,101213.00
2023-02-19T08:58:36.073Z,101215.00
2023-02-19T09:01:03.918Z,101229.00
2023-02-19T09:03:30.736Z,101229.00
2023-02-19T09:05:57.525Z,101221.00
2023-02-19T09:08:24.800Z,101235.00
2023-02-19T09:11:03.580Z,101251.00
2023-02-19T09:13:30.781Z,101246.00
2023-02-19T09:15:57.641Z,101245.00
2023-02-19T09:18:25.976Z,101249.00
2023-02-19T09:20:53.201Z,101258.00
2023-02-19T09:23:19.923Z,101251.00
2023-02-19T09:25:46.862Z,101263.00
2023-02-19T09:28:13.651Z,101257.00
2023-02-19T09:30:40.433Z,101256.00
2023-02-19T09:33:07.228Z,101259.00
2023-02-19T09:35:34.453Z,101267.00
2023-02-19T09:38:02.087Z,101267.00
2023-02-19T09:40:30.655Z,101271.00
2023-02-19T09:42:58.264Z,101275.00
2023-02-19T09:45:26.744Z,101271.00
2023-02-19T09:47:58.428Z,101268.00
2023-02-19T09:50:44.735Z,101277.00
2023-02-19T09:53:21.996Z,101281.00
2023-02-19T09:55:49.303Z,101288.00
2023-02-19T09:58:35.496Z,101279.00
2023-02-19T10:01:05.805Z,101289.00
2023-02-19T10:03:39.249Z,101295.00
2023-02-19T10:06:29.715Z,101295.00
2023-02-19T10:09:13.460Z,101292.00
2023-02-19T10:11:41.906Z,101306.00
2023-02-19T10:14:19.148Z,101306.00
2023-02-19T10:16:49.062Z,101305.00
2023-02-19T10:19:17.002Z,101318.00
2023-02-19T10:21:44.471Z,101320.00
2023-02-19T10:24:21.591Z,101323.00
2023-02-19T10:26:50.091Z,101326.00
2023-02-19T10:29:16.822Z,101343.00
2023-02-19T10:31:43.664Z,101344.00
2023-02-19T10:34:22.214Z,101345.00
2023-02-19T10:36:52.180Z,101352.00
2023-02-19T10:39:21.795Z,101352.00
2023-02-19T10:41:54.462Z,101358.00
2023-02-19T10:44:28.860Z,101364.00
2023-02-19T10:47:00.417Z,101367.00
2023-02-19T10:49:37.656Z,101363.00
2023-02-19T10:52:28.246Z,101364.00
2023-02-19T10:55:20.754Z,101375.00
2023-02-19T10:57:47.593Z,101379.00
2023-02-19T11:00:22.827Z,101388.00
2023-02-19T11:02:49.740Z,101397.00
2023-02-19T11:05:23.255Z,101389.00
2023-02-19T11:07:53.671Z,101405.00
2023-02-19T11:10:40.570Z,101394.00
2023-02-19T11:13:16.233Z,101409.00
2023-02-19T11:15:43.759Z,101409.00
2023-02-19T11:18:13.161Z,101413.00
2023-02-19T11:20:54.314Z,101422.00
2023-02-19T11:23:30.527Z,101433.00
2023-02-19T11:26:03.387Z,101432.00
2023-02-19T11:28:40.812Z,101429.00
2023-02-19T11:31:22.871Z,101436.00
2023-02-19T11:34:13.423Z,101434.00
2023-02-19T11:36:42.157Z,101421.00
2023-02-19T11:39:17.475Z,101430.00
2023-02-19T11:42:29.607Z,101436.00
2023-02-19T11:45:36.862Z,101447.00
2023-02-19T11:48:25.840Z,101444.00
2023-02-19T11:51:39.450Z,101431.00
2023-02-19T11:54:16.610Z,101441.00
2023-02-19T11:56:45.062Z,101428.00
2023-02-19T11:59:31.351Z,101449.00
2023-02-19T12:02:34.179Z,101431.00
2023-02-19T12:05:34.785Z,101433.00
2023-02-19T12:08:13.272Z,101442.00
2023-02-19T12:11:05.790Z,101445.00
2023-02-19T12:14:11.869Z,101444.00
2023-02-19T12:17:10.431Z,101460.00
2023-02-19T12:20:14.703Z,101458.00
2023-02-19T12:23:09.975Z,101456.00
2023-02-19T12:25:55.766Z,101459.00
2023-02-19T12:28:47.751Z,101461.00
2023-02-19T12:31:46.511Z,101470.00
2023-02-19T12:34:45.264Z,101483.00
2023-02-19T12:37:52.873Z,101467.00
2023-02-19T12:40:43.660Z,101475.00
2023-02-19T12:43:18.664Z,101478.00
2023-02-19T12:46:08.642Z,101489.00
2023-02-19T12:48:58.868Z,101488.00
2023-02-19T12:51:37.034Z,101487.00
2023-02-19T12:54:39.211Z,101484.00
2023-02-19T12:57:38.884Z,101490.00
2023-02-19T13:00:35.454Z,101484.00
2023-02-19T13:03:50.130Z,101492.00
2023-02-19T13:06:33.191Z,101492.00
2023-02-19T13:09:07.779Z,101497.00
2023-02-19T13:12:01.574Z,101505.00
2023-02-19T13:14:42.569Z,101510.00
2023-02-19T13:17:28.529Z,101508.00
2023-02-19T13:20:13.416Z,101510.00
2023-02-19T13:23:14.464Z,101518.00
2023-02-19T13:26:19.017Z,101518.00
2023-02-19T13:29:10.250Z,101525.00
2023-02-19T13:32:24.393Z,101522.00
2023-02-19T13:35:23.227Z,101518.00
2023-02-19T13:37:51.402Z,101522.00
2023-02-19T13:40:34.989Z,101523.00
2023-02-19T13:43:07.363Z,101519.00
2023-02-19T13:45:45.851Z,101517.00
2023-02-19T13:48:33.293Z,101521.00
2023-02-19T13:51:18.810Z,101527.00
2023-02-19T13:53:45.632Z,101526.00
2023-02-19T13:56:31.224Z,101526.00
2023-02-19T13:59:36.425Z,101526.00
2023-02-19T14:02:03.058Z,101531.00
2023-02-19T14:05:11.491Z,101529.00
2023-02-19T14:08:35.354Z,101548.00
2023-02-19T14:11:02.511Z,101551.00
2023-02-19T14:13:54.532Z,101557.00
2023-02-19T14:16:52.636Z,101567.00
2023-02-19T14:20:00.941Z,101565.00
2023-02-19T14:22:50.106Z,101561.00
2023-02-19T14:25:31.782Z,101561.00
2023-02-19T14:28:21.172Z,101564.00
2023-02-19T14:30:57.185Z,101561.00
2023-02-19T14:33:34.072Z,101554.00
2023-02-19T14:36:13.344Z,101556.00
2023-02-19T14:38:48.702Z,101562.00
2023-02-19T14:41:17.636Z,101557.00
2023-02-19T14:43:48.762Z,101563.00
2023-02-19T14:46:31.138Z,101557.00
2023-02-19T14:49:19.737Z,101546.00
2023-02-19T14:51:53.105Z,101561.00
2023-02-19T14:54:37.290Z,101562.00
2023-02-19T14:57:06.689Z,101577.00
2023-02-19T14:59:33.395Z,101571.00
2023-02-19T15:02:13.074Z,101573.00
2023-02-19T15:04:40.281Z,101570.00
2023-02-19T15:07:14.034Z,101584.00
2023-02-19T15:09:47.322Z,101581.00
2023-02-19T15:12:28.754Z,101603.00
2023-02-19T15:15:01.359Z,101594.00
2023-02-19T15:17:35.731Z,101590.00
2023-02-19T15:20:10.927Z,101593.00
2023-02-19T15:22:41.553Z,101596.00
2023-02-19T15:25:16.650Z,101612.00
2023-02-19T15:27:43.788Z,101606.00
2023-02-19T15:30:31.290Z,101612.00
2023-02-19T15:33:00.245Z,101600.00
2023-02-19T15:35:29.930Z,101600.00
2023-02-19T15:37:57.066Z,101594.00
2023-02-19T15:40:31.489Z,101591.00
2023-02-19T15:43:00.281Z,101595.00
2023-02-19T15:45:37.633Z,101606.00
2023-02-19T15:48:19.727Z,101613.00
2023-02-19T15:53:52.163Z,101637.00
2023-02-19T15:56:30.474Z,101628.00
2023-02-19T15:59:13.325Z,101627.00
2023-02-19T16:01:40.769Z,101626.00
2023-02-19T16:04:15.695Z,101633.00
2023-02-19T16:07:01.949Z,101643.00
2023-02-19T16:09:40.865Z,101648.00
2023-02-19T16:12:24.869Z,101651.00
2023-02-19T16:14:51.847Z,101649.00
2023-02-19T16:17:23.155Z,101660.00
2023-02-19T16:19:56.835Z,101665.00
2023-02-19T16:22:28.978Z,101660.00
2023-02-19T16:25:01.909Z,101678.00
2023-02-19T16:27:42.489Z,101681.00
2023-02-19T16:30:17.043Z,101683.00
2023-02-19T16:32:46.780Z,101690.00
2023-02-19T16:35:52.164Z,101684.00
2023-02-19T16:38:20.939Z,101681.00
2023-02-19T16:40:50.874Z,101692.00
2023-02-19T16:43:40.951Z,101704.00
2023-02-19T16:46:12.852Z,101693.00
2023-02-19T16:48:39.718Z,101703.00
2023-02-19T16:51:08.666Z,101706.00
2023-02-19T16:53:35.746Z,101702.00
2023-02-19T16:56:02.664Z,101704.00
2023-02-19T16:58:29.451Z,101704.00
2023-02-19T17:00:56.490Z,101699.00
2023-02-19T17:03:25.529Z,101712.00
2023-02-19T17:05:52.792Z,101716.00
2023-02-19T17:08:37.058Z,101717.00
2023-02-19T17:11:07.090Z,101712.00
2023-02-19T17:13:33.867Z,101712.00
2023-02-19T17:16:00.735Z,101718.00
2023-02-19T17:18:27.993Z,101711.00
2023-02-19T17:21:29.504Z,101713.00
2023-02-19T17:23:59.211Z,101711.00
2023-02-19T17:26:29.857Z,101726.00
2023-02-19T17:28:58.505Z,101719.00
2023-02-19T17:31:26.133Z,101719.00
2023-02-19T17:33:53.106Z,101715.00
2023-02-19T17:36:30.735Z,101730.00
2023-02-19T17:39:03.172Z,101721.00
2023-02-19T17:41:29.962Z,101724.00
2023-02-19T17:43:56.739Z,101724.00
2023-02-19T17:46:26.436Z,101720.00
2023-02-19T17:48:54.430Z,101729.00
2023-02-19T17:51:22.105Z,101737.00
2023-02-19T17:53:48.963Z,101735.00
2023-02-19T17:56:27.994Z,101742.00
2023-02-19T17:58:56.927Z,101736.00
2023-02-19T18:01:24.076Z,101744.00
2023-02-19T18:03:51.299Z,101745.00
2023-02-19T18:06:18.430Z,101753.00
2023-02-19T18:08:50.941Z,101751.00
2023-02-19T18:11:18.075Z,101747.00
2023-02-19T18:13:45.303Z,101748.00
2023-02-19T18:16:12.306Z,101748.00
2023-02-19T18:18:40.356Z,101756.00
2023-02-19T18:21:10.870Z,101752.00
2023-02-19T18:23:38.801Z,101763.00
2023-02-19T18:26:12.697Z,101764.00
2023-02-19T18:28:39.924Z,101770.00
2023-02-19T18:31:07.229Z,101764.00
2023-02-19T18:33:35.031Z,101761.00
2023-02-19T18:36:01.949Z,101765.00
2023-02-19T18:38:28.756Z,101767.00
2023-02-19T18:40:58.395Z,101767.00
2023-02-19T18:43:25.782Z,101767.00
2023-02-19T18:45:52.610Z,101772.00
2023-02-19T18:48:19.383Z,101774.00
2023-02-19T18:50:46.707Z,101780.00
2023-02-19T18:53:14.032Z,101778.00
2023-02-19T18:55:40.756Z,101781.00
2023-02-19T18:58:07.465Z,101778.00
2023-02-19T19:00:34.196Z,101782.00
2023-02-19T19:03:00.937Z,101791.00
2023-02-19T19:05:27.830Z,101776.00
2023-02-19T19:07:59.271Z,101768.00
2023-02-19T19:10:26.589Z,101781.00
2023-02-19T19:12:54.254Z,101770.00
2023-02-19T19:15:22.385Z,101776.00
2023-02-19T19:17:49.797Z,101767.00
2023-02-19T19:20:22.233Z,101774.00
2023-02-19T19:22:51.447Z,101788.00
2023-02-19T19:25:19.930Z,101785.00
2023-02-19T19:27:46.776Z,101781.00
2023-02-19T19:30:14.133Z,101768.00
2023-02-19T19:32:40.858Z,101768.00
2023-02-19T19:35:08.370Z,101776.00
2023-02-19T19:37:35.244Z,101777.00
2023-02-19T19:40:03.920Z,101768.00
2023-02-19T19:42:30.709Z,101773.00
2023-02-19T19:44:57.480Z,101781.00
2023-02-19T19:47:24.240Z,101777.00
2023-02-19T19:49:50.988Z,101779.00
2023-02-19T19:52:17.782Z,101784.00
2023-02-19T19:54:44.922Z,101780.00
2023-02-19T19:57:11.952Z,101773.00
2023-02-19T19:59:39.542Z,101771.00
2023-02-19T20:02:07.651Z,101774.00
2023-02-19T20:04:34.480Z,101768.00
2023-02-19T20:07:02.231Z,101767.00
2023-02-19T20:09:29.381Z,101768.00
2023-02-19T20:11:56.788Z,101761.00
2023-02-19T20:14:25.324Z,101765.00
2023-02-19T20:16:54.458Z,101771.00
2023-02-19T20:19:21.657Z,101770.00
2023-02-19T20:21:53.744Z,101769.00
2023-02-19T20:24:25.910Z,101785.00
2023-02-19T20:27:02.661Z,101783.00
2023-02-19T20:29:33.140Z,101789.00
2023-02-19T20:32:02.462Z,101777.00
2023-02-19T20:34:29.999Z,101782.00
2023-02-19T20:36:56.898Z,101783.00
2023-02-19T20:39:28.646Z,101790.00
2023-02-19T20:41:56.310Z,101787.00
2023-02-19T20:44:23.110Z,101798.00
2023-02-19T20:46:52.477Z,101796.00
2023-02-19T20:49:22.646Z,101792.00
2023-02-19T20:51:57.742Z,101795.00
2023-02-19T20:54:31.049Z,101792.00
2023-02-19T20:57:02.120Z,101787.00
2023-02-19T20:59:34.913Z,101789.00
2023-02-19T21:02:27.684Z,101798.00
2023-02-19T21:04:56.083Z,101792.00
2023-02-19T21:07:26.800Z,101797.00
2023-02-19T21:09:54.183Z,101810.00
2023-02-19T21:12:22.589Z,101799.00
2023-02-19T21:14:49.661Z,101796.00
2023-02-19T21:17:16.631Z,101794.00
2023-02-19T21:19:43.356Z,101802.00
2023-02-19T21:22:10.126Z,101787.00
2023-02-19T21:24:36.864Z,101785.00
2023-02-19T21:27:03.964Z,101779.00
2023-02-19T21:29:30.706Z,101777.00
2023-02-19T21:31:58.081Z,101767.00
2023-02-19T21:34:29.743Z,101769.00
2023-02-19T21:36:57.438Z,101763.00
2023-02-19T21:39:25.666Z,101757.00
2023-02-19T21:41:52.458Z,101753.00
2023-02-19T21:44:21.124Z,101748.00
2023-02-19T21:46:48.259Z,101752.00
2023-02-19T21:49:15.066Z,101761.00
2023-02-19T21:51:43.967Z,101755.00
2023-02-19T21:54:19.142Z,101743.00
2023-02-19T21:56:45.923Z,101742.00
2023-02-19T21:59:13.359Z,101759.00
2023-02-19T22:01:40.387Z,101750.00
2023-02-19T22:04:08.985Z,101739.00
2023-02-19T22:06:36.038Z,101728.00
2023-02-19T22:09:03.804Z,101723.00
2023-02-19T22:11:30.580Z,101722.00
2023-02-19T22:13:57.544Z,101723.00
2023-02-19T22:16:24.397Z,101720.00
2023-02-19T22:18:57.796Z,101709.00
2023-02-19T22:21:32.517Z,101714.00
2023-02-19T22:24:01.360Z,101707.00
2023-02-19T22:26:35.520Z,101704.00
2023-02-19T22:29:07.092Z,101695.00
2023-02-19T22:31:35.596Z,101702.00
2023-02-19T22:34:03.458Z,101697.00
2023-02-19T22:36:40.235Z,101698.00
2023-02-19T22:39:15.302Z,101696.00
2023-02-19T22:41:43.061Z,101711.00
2023-02-19T22:44:11.137Z,101708.00
2023-02-19T22:46:38.179Z,101715.00
2023-02-19T22:49:06.409Z,101720.00
2023-02-19T22:51:35.552Z,101721.00
2023-02-19T22:54:02.488Z,101738.00
2023-02-19T22:56:29.350Z,101738.00
2023-02-19T22:58:58.942Z,101731.00
2023-02-19T23:01:26.063Z,101726.00
2023-02-19T23:03:57.068Z,101736.00
2023-02-19T23:06:30.536Z,101730.00
2023-02-19T23:09:02.922Z,101725.00
2023-02-19T23:11:33.647Z,101732.00
2023-02-19T23:14:01.005Z,101736.00
2023-02-19T23:16:29.172Z,101746.00
2023-02-19T23:18:55.986Z,101744.00
2023-02-19T23:21:23.430Z,101723.00
2023-02-19T23:23:50.662Z,101724.00
2023-02-19T23:26:17.554Z,101725.00
2023-02-19T23:28:45.266Z,101727.00
2023-02-19T23:31:13.347Z,101714.00
2023-02-19T23:33:40.605Z,101710.00
2023-02-19T23:36:08.591Z,101712.00
2023-02-19T23:38:35.590Z,101703.00
2023-02-19T23:41:03.006Z,101705.00
2023-02-19T23:43:29.759Z,101695.00
2023-02-19T23:45:57.004Z,101692.00
2023-02-19T23:48:23.756Z,101706.00
2023-02-19T23:50:50.491Z,101690.00
2023-02-19T23:53:17.234Z,101699.00
2023-02-19T23:55:44.016Z,101693.00
2023-02-19T23:58:10.759Z,101679.00
